createdAt,value
2023-02-03T04:01:42.838Z,99833.31
2023-02-03T04:04:53.807Z,99850.13
2023-02-03T04:08:03.685Z,99857.28
2023-02-03T04:11:33.883Z,99851.81
2023-02-03T04:14:43.433Z,99835.91
2023-02-03T04:17:56.949Z,99832.34
2023-02-03T04:21:06.640Z,99829.38
2023-02-03T04:24:16.208Z,99820.78
2023-02-03T04:27:25.995Z,99837.44
2023-02-03T04:30:35.788Z,99841.06
2023-02-03T04:33:47.082Z,99827.75
2023-02-03T04:36:56.567Z,99815.09
2023-02-03T04:40:06.997Z,99838.78
2023-02-03T04:43:16.974Z,99837.91
2023-02-03T04:46:26.666Z,99830.09
2023-02-03T04:49:37.395Z,99826.13
2023-02-03T04:52:46.968Z,99824.63
2023-02-03T04:55:56.543Z,99816.97
2023-02-03T04:59:06.177Z,99804.56
2023-02-03T05:02:15.711Z,99808.00
2023-02-03T05:05:27.118Z,99807.09
2023-02-03T05:08:38.824Z,99810.81
2023-02-03T05:11:48.475Z,99824.22
2023-02-03T05:14:58.125Z,99809.88
2023-02-03T05:18:07.855Z,99823.81
2023-02-03T05:21:18.813Z,99872.09
2023-02-03T05:24:28.426Z,99826.88
2023-02-03T05:27:39.681Z,99833.38
2023-02-03T05:30:49.322Z,99837.59
2023-02-03T05:33:59.144Z,99843.75
2023-02-03T05:37:10.410Z,99822.19
2023-02-03T05:40:31.079Z,99826.97
2023-02-03T05:43:40.726Z,99847.72
2023-02-03T05:46:51.502Z,99842.91
2023-02-03T05:50:01.069Z,99827.59
2023-02-03T05:53:12.127Z,99819.88
2023-02-03T05:56:21.760Z,99796.56
2023-02-03T05:59:31.258Z,99798.28
2023-02-03T07:35:30.768Z,99839.78
2023-02-03T07:38:40.312Z,99843.41
2023-02-03T07:41:50.123Z,99850.78
2023-02-03T07:44:59.834Z,99846.69
2023-02-03T07:48:09.760Z,99847.63
2023-02-03T07:51:20.826Z,99850.19
2023-02-03T07:54:30.715Z,99860.44
2023-02-03T07:57:43.327Z,99854.38
2023-02-03T08:00:53.177Z,99838.91
2023-02-03T08:04:05.186Z,99850.50
2023-02-03T08:07:16.246Z,99850.69
2023-02-03T08:10:26.246Z,99850.56
2023-02-03T08:13:36.240Z,99861.84
2023-02-03T08:16:46.077Z,99865.44
2023-02-03T08:19:55.735Z,99859.91
2023-02-03T08:23:07.655Z,99860.72
2023-02-03T08:26:17.295Z,99865.13
2023-02-03T08:29:26.821Z,99854.91
2023-02-03T08:32:36.602Z,99860.31
2023-02-03T08:35:48.065Z,99855.84
2023-02-03T08:38:59.529Z,99875.75
2023-02-03T08:42:09.397Z,99869.13
2023-02-03T08:45:19.464Z,99867.81
2023-02-03T08:48:29.090Z,99856.53
2023-02-03T08:51:40.600Z,99841.06
2023-02-03T08:54:51.839Z,99858.94
2023-02-03T08:58:02.250Z,99844.59
2023-02-03T09:01:14.163Z,99858.03
2023-02-03T09:04:24.956Z,99846.63
2023-02-03T09:07:34.755Z,99856.84
2023-02-03T09:10:46.214Z,99837.63
2023-02-03T09:13:57.770Z,99825.28
2023-02-03T09:17:09.309Z,99822.94
2023-02-03T09:20:19.319Z,99828.81
2023-02-03T09:23:29.034Z,99826.59
2023-02-03T09:26:39.940Z,99832.44
2023-02-03T09:29:49.667Z,99844.38
2023-02-03T09:32:59.309Z,99834.28
2023-02-03T09:36:09.399Z,99829.94
2023-02-03T09:39:19.159Z,99829.78
2023-02-03T09:42:52.887Z,99804.91
2023-02-03T09:46:06.959Z,99799.34
2023-02-03T09:49:23.283Z,99796.75
2023-02-03T09:52:35.275Z,99791.34
2023-02-03T09:55:47.323Z,99816.06
2023-02-03T09:58:58.582Z,99827.03
2023-02-03T10:02:23.026Z,99831.13
2023-02-03T10:05:53.427Z,99837.28
2023-02-03T10:09:17.875Z,99822.09
2023-02-03T10:12:45.126Z,99809.69
2023-02-03T10:16:05.964Z,99805.00
2023-02-03T10:19:20.605Z,99804.72
2023-02-03T10:22:33.358Z,99810.72
2023-02-03T10:25:47.088Z,99810.38
2023-02-03T10:28:59.486Z,99812.69
2023-02-03T10:32:11.870Z,99798.53
2023-02-03T10:35:22.634Z,99799.44
2023-02-03T10:38:47.312Z,99797.59
2023-02-03T10:41:57.533Z,99786.44
2023-02-03T10:45:12.594Z,99792.47
2023-02-03T10:48:24.476Z,99791.91
2023-02-03T10:51:38.440Z,99793.75
2023-02-03T10:54:48.042Z,99789.22
2023-02-03T10:57:59.015Z,99778.97
2023-02-03T11:01:12.177Z,99769.78
2023-02-03T11:04:27.059Z,99769.00
2023-02-03T11:07:37.459Z,99771.13
2023-02-03T11:10:46.973Z,99767.50
2023-02-03T11:14:12.097Z,99790.72
2023-02-03T11:17:23.831Z,99793.47
2023-02-03T11:20:37.870Z,99791.34
2023-02-03T11:23:52.885Z,99791.78
2023-02-03T11:27:06.928Z,99805.22
2023-02-03T11:30:21.648Z,99813.38
2023-02-03T11:33:31.298Z,99810.94
2023-02-03T11:36:42.226Z,99807.03
2023-02-03T11:39:55.997Z,99817.56
2023-02-03T11:43:15.269Z,99819.06
2023-02-03T11:46:25.276Z,99812.75
2023-02-03T11:49:55.925Z,99816.38
2023-02-03T11:53:23.019Z,99811.84
2023-02-03T11:56:51.436Z,99818.16
2023-02-03T12:00:15.804Z,99808.22
2023-02-03T12:03:50.864Z,99796.19
2023-02-03T12:07:15.637Z,99790.41
2023-02-03T12:10:40.652Z,99785.00
2023-02-03T12:14:04.064Z,99793.75
2023-02-03T12:17:30.906Z,99790.59
2023-02-03T12:20:51.344Z,99777.78
2023-02-03T12:24:09.033Z,99771.16
2023-02-03T12:27:32.426Z,99776.44
2023-02-03T12:30:45.954Z,99765.44
2023-02-03T12:34:05.014Z,99792.84
2023-02-03T12:37:18.404Z,99782.28
2023-02-03T12:40:36.928Z,99764.31
2023-02-03T12:43:52.442Z,99747.19
2023-02-03T12:47:05.901Z,99735.25
2023-02-03T12:50:19.031Z,99744.94
2023-02-03T12:53:35.202Z,99741.34
2023-02-03T12:56:48.986Z,99735.78
2023-02-03T13:00:10.897Z,99727.50
2023-02-03T13:03:28.189Z,99723.56
2023-02-03T13:06:49.581Z,99719.94
2023-02-03T13:10:05.107Z,99712.72
2023-02-03T13:13:19.571Z,99706.69
2023-02-03T13:16:43.057Z,99714.22
2023-02-03T13:19:56.200Z,99717.84
2023-02-03T13:23:11.106Z,99711.81
2023-02-03T13:26:48.445Z,99730.66
2023-02-03T13:30:12.618Z,99726.91
2023-02-03T13:33:45.466Z,99719.94
2023-02-03T13:37:13.743Z,99729.59
2023-02-03T13:40:33.680Z,99725.41
2023-02-03T13:43:47.985Z,99698.44
2023-02-03T13:47:00.131Z,99691.66
2023-02-03T13:50:21.438Z,99697.53
2023-02-03T13:53:37.186Z,99704.91
2023-02-03T13:56:55.997Z,99723.88
2023-02-03T14:00:27.955Z,99722.22
2023-02-03T14:03:44.761Z,99718.78
2023-02-03T14:07:00.033Z,99733.53
2023-02-03T14:10:21.322Z,99724.78
2023-02-03T14:13:31.182Z,99712.59
2023-02-03T14:16:42.574Z,99734.72
2023-02-03T14:19:56.625Z,99724.31
2023-02-03T14:23:15.716Z,99727.06
2023-02-03T14:26:33.712Z,99738.94
2023-02-03T14:29:44.011Z,99750.66
2023-02-03T14:32:56.456Z,99751.28
2023-02-03T14:36:06.426Z,99757.63
2023-02-03T14:39:39.584Z,99754.28
2023-02-03T14:46:53.983Z,99736.84
2023-02-03T14:50:22.816Z,99738.03
2023-02-03T14:53:48.647Z,99737.75
2023-02-03T14:57:19.443Z,99737.75
2023-02-03T15:00:33.368Z,99735.63
2023-02-03T15:04:18.159Z,99745.25
2023-02-03T15:07:44.662Z,99759.56
2023-02-03T15:10:54.252Z,99765.16
2023-02-03T15:14:19.927Z,99766.94
2023-02-03T15:17:30.554Z,99760.75
2023-02-03T15:20:42.486Z,99769.16
2023-02-03T15:23:52.780Z,99771.72
2023-02-03T15:27:02.518Z,99769.03
2023-02-03T15:30:18.043Z,99773.09
2023-02-03T15:33:30.189Z,99770.22
2023-02-03T15:36:45.160Z,99764.34
2023-02-03T15:40:01.699Z,99755.19
2023-02-03T15:43:18.016Z,99763.63
2023-02-03T15:46:33.250Z,99779.28
2023-02-03T15:49:44.009Z,99770.22
2023-02-03T15:52:57.755Z,99771.41
2023-02-03T15:56:07.638Z,99774.13
2023-02-03T15:59:23.617Z,99768.81
2023-02-03T16:02:40.176Z,99773.50
2023-02-03T16:05:50.703Z,99777.88
2023-02-03T16:09:00.659Z,99765.94
2023-02-03T16:12:18.125Z,99754.94
2023-02-03T16:15:28.359Z,99764.47
2023-02-03T16:18:39.560Z,99776.94
2023-02-03T16:21:54.878Z,99773.91
2023-02-03T16:25:14.592Z,99783.56
2023-02-03T16:28:35.263Z,99777.69
2023-02-03T16:31:57.941Z,99789.44
2023-02-03T16:35:22.159Z,99793.31
2023-02-03T16:38:43.103Z,99798.78
2023-02-03T16:42:10.459Z,99803.25
2023-02-03T16:45:31.848Z,99813.34
2023-02-03T16:48:52.651Z,99823.00
2023-02-03T16:52:06.378Z,99831.59
2023-02-03T16:55:15.961Z,99846.34
2023-02-03T16:58:26.225Z,99846.50
2023-02-03T17:01:35.992Z,99863.22
2023-02-03T17:04:45.640Z,99859.03
2023-02-03T17:07:56.727Z,99863.19
2023-02-03T17:11:09.601Z,99852.06
2023-02-03T17:14:19.415Z,99851.16
2023-02-03T17:17:29.064Z,99849.97
2023-02-03T17:20:38.882Z,99859.59
2023-02-03T17:23:50.100Z,99860.50
2023-02-03T17:26:59.711Z,99860.22
2023-02-03T17:30:10.314Z,99863.19
2023-02-03T17:33:20.000Z,99860.16
2023-02-03T17:36:29.858Z,99860.59
2023-02-03T17:56:23.250Z,99856.06
2023-02-03T17:59:34.936Z,99861.91
2023-02-03T18:02:44.799Z,99847.81
2023-02-03T18:05:54.627Z,99857.91
2023-02-03T18:09:06.320Z,99858.03
2023-02-03T18:12:17.312Z,99860.28
2023-02-03T18:15:27.359Z,99861.03
2023-02-03T18:18:38.783Z,99866.00
2023-02-03T18:21:48.369Z,99861.19
2023-02-03T18:24:57.988Z,99865.72
2023-02-03T18:28:09.069Z,99858.34
2023-02-03T18:31:18.915Z,99864.53
2023-02-03T18:34:28.769Z,99865.88
2023-02-03T18:37:38.373Z,99865.75
2023-02-03T18:40:48.064Z,99863.19
2023-02-03T18:43:59.169Z,99860.78
2023-02-03T18:47:09.452Z,99871.00
2023-02-03T18:50:19.090Z,99876.47
2023-02-03T18:53:31.170Z,99877.94
2023-02-03T18:56:40.902Z,99882.78
2023-02-03T18:59:51.910Z,99883.09
2023-02-03T19:03:01.763Z,99887.38
2023-02-03T19:06:11.743Z,99895.44
2023-02-03T19:09:23.479Z,99894.22
2023-02-03T19:12:33.118Z,99913.81
2023-02-03T19:15:45.764Z,99910.97
2023-02-03T19:18:55.526Z,99916.28
2023-02-03T19:22:05.103Z,99906.81
2023-02-03T19:25:14.989Z,99913.59
2023-02-03T19:28:30.861Z,99931.63
2023-02-03T19:31:42.514Z,99933.47
2023-02-03T19:34:52.146Z,99926.84
2023-02-03T19:38:01.958Z,99926.56
2023-02-03T19:41:12.184Z,99937.41
2023-02-03T19:44:22.245Z,99931.72
2023-02-03T19:47:33.178Z,99931.72
2023-02-03T19:50:45.885Z,99932.78
2023-02-03T19:53:58.762Z,99939.09
2023-02-03T19:57:08.763Z,99942.59
2023-02-03T20:00:20.349Z,99940.47
2023-02-03T20:03:32.542Z,99940.16
2023-02-03T20:06:42.200Z,99947.09
2023-02-03T20:09:52.021Z,99946.50
2023-02-03T20:13:01.914Z,99945.59
2023-02-03T20:16:11.727Z,99954.06
2023-02-03T20:19:22.890Z,99961.56
2023-02-03T20:22:32.894Z,99969.13
2023-02-03T20:25:42.658Z,99971.97
2023-02-03T20:28:52.343Z,99973.78
2023-02-03T20:32:02.307Z,99976.81
2023-02-03T20:35:13.336Z,99973.91
2023-02-03T20:38:23.779Z,99976.16
2023-02-03T20:41:33.819Z,99970.72
2023-02-03T20:44:44.005Z,99964.22
2023-02-03T20:47:53.670Z,99967.56
2023-02-03T20:51:04.772Z,99964.56
2023-02-03T20:54:17.772Z,99969.34
2023-02-03T20:57:27.414Z,99963.94
2023-02-03T21:00:37.102Z,99971.75
2023-02-03T21:03:58.350Z,99957.22
2023-02-03T21:07:14.816Z,99967.63
2023-02-03T21:10:25.579Z,99971.44
2023-02-03T21:13:35.968Z,99979.59
2023-02-03T21:16:47.502Z,99978.81
